sensor_id;sensor_type;location;lat;lon;timestamp;pressure;altitude;pressure_sealevel;temperature;humidity
66430;BME280;53242;51.694;10.006;2023-06-10T00:02:20;99560.66;;;18.52;55.77
66430;BME280;53242;51.694;10.006;2023-06-10T00:04:43;99554.75;;;18.50;55.88
66430;BME280;53242;51.694;10.006;2023-06-10T00:07:05;99551.53;;;18.31;56.47
66430;BME280;53242;51.694;10.006;2023-06-10T00:09:30;99557.47;;;18.16;57.37
66430;BME280;53242;51.694;10.006;2023-06-10T00:11:53;99549.03;;;18.07;57.40
66430;BME280;53242;51.694;10.006;2023-06-10T00:14:16;99550.41;;;18.10;57.12
66430;BME280;53242;51.694;10.006;2023-06-10T00:16:38;99555.66;;;18.22;56.67
66430;BME280;53242;51.694;10.006;2023-06-10T00:19:01;99553.31;;;18.08;57.21
66430;BME280;53242;51.694;10.006;2023-06-10T00:21:24;99549.50;;;18.04;57.25
66430;BME280;53242;51.694;10.006;2023-06-10T00:23:47;99550.97;;;18.12;56.89
66430;BME280;53242;51.694;10.006;2023-06-10T00:26:10;99553.88;;;18.11;57.45
66430;BME280;53242;51.694;10.006;2023-06-10T00:28:33;99551.53;;;18.31;56.42
66430;BME280;53242;51.694;10.006;2023-06-10T00:30:55;99544.63;;;18.35;55.63
66430;BME280;53242;51.694;10.006;2023-06-10T00:33:18;99546.03;;;18.21;56.25
66430;BME280;53242;51.694;10.006;2023-06-10T00:35:40;99545.53;;;18.41;56.71
66430;BME280;53242;51.694;10.006;2023-06-10T00:38:02;99540.69;;;18.04;57.38
66430;BME280;53242;51.694;10.006;2023-06-10T00:40:25;99541.78;;;17.91;58.46
66430;BME280;53242;51.694;10.006;2023-06-10T00:42:47;99543.03;;;18.00;58.18
66430;BME280;53242;51.694;10.006;2023-06-10T00:45:10;99551.53;;;18.14;57.64
66430;BME280;53242;51.694;10.006;2023-06-10T00:47:32;99548.25;;;17.78;58.75
66430;BME280;53242;51.694;10.006;2023-06-10T00:49:55;99550.16;;;17.95;58.71
66430;BME280;53242;51.694;10.006;2023-06-10T00:52:18;99550.88;;;18.07;57.61
66430;BME280;53242;51.694;10.006;2023-06-10T00:54:42;99545.91;;;17.82;58.84
66430;BME280;53242;51.694;10.006;2023-06-10T00:57:05;99548.16;;;17.90;58.77
66430;BME280;53242;51.694;10.006;2023-06-10T00:59:31;99550.56;;;17.74;59.68
66430;BME280;53242;51.694;10.006;2023-06-10T01:01:54;99548.09;;;17.85;59.22
66430;BME280;53242;51.694;10.006;2023-06-10T01:04:17;99545.81;;;17.77;59.80
66430;BME280;53242;51.694;10.006;2023-06-10T01:10:18;99547.03;;;17.69;60.91
66430;BME280;53242;51.694;10.006;2023-06-10T01:12:52;99548.50;;;17.48;61.41
66430;BME280;53242;51.694;10.006;2023-06-10T01:15:18;99543.25;;;17.53;60.50
66430;BME280;53242;51.694;10.006;2023-06-10T01:20:19;99552.59;;;17.38;61.04
66430;BME280;53242;51.694;10.006;2023-06-10T01:22:42;99548.97;;;17.45;60.98
66430;BME280;53242;51.694;10.006;2023-06-10T01:25:05;99552.94;;;17.42;61.17
66430;BME280;53242;51.694;10.006;2023-06-10T01:27:30;99554.59;;;17.60;60.60
66430;BME280;53242;51.694;10.006;2023-06-10T01:29:59;99560.97;;;17.30;61.49
66430;BME280;53242;51.694;10.006;2023-06-10T01:32:34;99556.72;;;17.17;62.29
66430;BME280;53242;51.694;10.006;2023-06-10T01:34:56;99555.81;;;17.12;62.07
66430;BME280;53242;51.694;10.006;2023-06-10T01:37:21;99552.91;;;17.13;61.09
66430;BME280;53242;51.694;10.006;2023-06-10T01:39:48;99552.88;;;17.25;60.35
66430;BME280;53242;51.694;10.006;2023-06-10T01:42:11;99551.97;;;17.19;60.37
66430;BME280;53242;51.694;10.006;2023-06-10T01:44:34;99550.25;;;17.13;60.60
66430;BME280;53242;51.694;10.006;2023-06-10T01:46:56;99560.13;;;17.01;61.29
66430;BME280;53242;51.694;10.006;2023-06-10T01:49:19;99552.97;;;17.30;60.67
66430;BME280;53242;51.694;10.006;2023-06-10T01:51:41;99559.06;;;17.42;60.58
66430;BME280;53242;51.694;10.006;2023-06-10T01:54:04;99559.94;;;17.31;61.14
66430;BME280;53242;51.694;10.006;2023-06-10T01:56:27;99562.41;;;17.09;61.80
66430;BME280;53242;51.694;10.006;2023-06-10T01:58:50;99564.63;;;17.12;61.51
66430;BME280;53242;51.694;10.006;2023-06-10T02:01:13;99567.50;;;17.22;61.83
66430;BME280;53242;51.694;10.006;2023-06-10T02:03:36;99559.53;;;16.99;62.33
66430;BME280;53242;51.694;10.006;2023-06-10T02:05:58;99564.31;;;16.97;62.21
66430;BME280;53242;51.694;10.006;2023-06-10T02:08:22;99566.03;;;16.91;62.17
66430;BME280;53242;51.694;10.006;2023-06-10T02:10:44;99563.84;;;17.00;62.05
66430;BME280;53242;51.694;10.006;2023-06-10T02:13:07;99563.72;;;16.95;61.95
66430;BME280;53242;51.694;10.006;2023-06-10T02:15:30;99563.38;;;16.91;61.88
66430;BME280;53242;51.694;10.006;2023-06-10T02:17:52;99559.53;;;16.87;61.80
66430;BME280;53242;51.694;10.006;2023-06-10T02:20:15;99566.16;;;16.72;62.65
66430;BME280;53242;51.694;10.006;2023-06-10T02:22:37;99564.19;;;16.80;62.54
66430;BME280;53242;51.694;10.006;2023-06-10T02:24:59;99574.16;;;16.72;62.55
66430;BME280;53242;51.694;10.006;2023-06-10T02:27:22;99578.59;;;16.67;62.44
66430;BME280;53242;51.694;10.006;2023-06-10T02:29:44;99578.59;;;16.67;62.65
66430;BME280;53242;51.694;10.006;2023-06-10T02:32:07;99585.72;;;16.78;62.12
66430;BME280;53242;51.694;10.006;2023-06-10T02:34:30;99592.25;;;16.82;61.97
66430;BME280;53242;51.694;10.006;2023-06-10T02:36:53;99594.53;;;16.55;63.04
66430;BME280;53242;51.694;10.006;2023-06-10T02:39:17;99593.72;;;16.78;62.48
66430;BME280;53242;51.694;10.006;2023-06-10T02:41:41;99594.22;;;16.75;62.50
66430;BME280;53242;51.694;10.006;2023-06-10T02:44:04;99580.88;;;16.63;62.61
66430;BME280;53242;51.694;10.006;2023-06-10T02:46:26;99589.91;;;16.74;61.91
66430;BME280;53242;51.694;10.006;2023-06-10T02:48:51;99590.59;;;16.57;62.94
66430;BME280;53242;51.694;10.006;2023-06-10T02:51:17;99592.81;;;16.72;62.93
66430;BME280;53242;51.694;10.006;2023-06-10T02:53:43;99593.84;;;16.48;63.62
66430;BME280;53242;51.694;10.006;2023-06-10T02:56:08;99606.38;;;16.59;63.25
66430;BME280;53242;51.694;10.006;2023-06-10T02:58:31;99598.47;;;16.52;63.69
66430;BME280;53242;51.694;10.006;2023-06-10T03:00:54;99603.38;;;16.55;62.97
66430;BME280;53242;51.694;10.006;2023-06-10T03:03:17;99600.47;;;16.69;62.26
66430;BME280;53242;51.694;10.006;2023-06-10T03:05:49;99598.50;;;16.64;62.43
66430;BME280;53242;51.694;10.006;2023-06-10T03:08:13;99606.38;;;16.71;62.15
66430;BME280;53242;51.694;10.006;2023-06-10T03:10:38;99599.88;;;16.79;62.10
66430;BME280;53242;51.694;10.006;2023-06-10T03:13:00;99600.56;;;16.74;61.99
66430;BME280;53242;51.694;10.006;2023-06-10T03:15:23;99606.59;;;16.57;62.40
66430;BME280;53242;51.694;10.006;2023-06-10T03:17:47;99599.88;;;16.55;62.21
66430;BME280;53242;51.694;10.006;2023-06-10T03:20:10;99597.69;;;16.52;62.55
66430;BME280;53242;51.694;10.006;2023-06-10T03:22:33;99602.22;;;16.51;62.12
66430;BME280;53242;51.694;10.006;2023-06-10T03:25:04;99598.84;;;16.56;62.15
66430;BME280;53242;51.694;10.006;2023-06-10T03:27:27;99601.50;;;16.56;62.33
66430;BME280;53242;51.694;10.006;2023-06-10T03:29:53;99603.56;;;16.42;62.66
66430;BME280;53242;51.694;10.006;2023-06-10T03:32:16;99606.34;;;16.47;62.80
66430;BME280;53242;51.694;10.006;2023-06-10T03:34:40;99603.81;;;16.52;62.49
66430;BME280;53242;51.694;10.006;2023-06-10T03:37:02;99606.47;;;16.40;63.17
66430;BME280;53242;51.694;10.006;2023-06-10T03:39:25;99600.50;;;16.03;64.11
66430;BME280;53242;51.694;10.006;2023-06-10T03:41:52;99596.69;;;16.10;64.23
66430;BME280;53242;51.694;10.006;2023-06-10T03:44:14;99603.13;;;16.33;63.54
66430;BME280;53242;51.694;10.006;2023-06-10T03:46:37;99601.00;;;16.23;64.08
66430;BME280;53242;51.694;10.006;2023-06-10T03:49:00;99602.66;;;16.36;63.56
66430;BME280;53242;51.694;10.006;2023-06-10T03:51:23;99604.16;;;16.32;63.53
66430;BME280;53242;51.694;10.006;2023-06-10T03:53:46;99599.50;;;16.16;63.97
66430;BME280;53242;51.694;10.006;2023-06-10T03:56:08;99605.06;;;16.50;63.11
66430;BME280;53242;51.694;10.006;2023-06-10T03:58:31;99604.03;;;16.27;63.97
66430;BME280;53242;51.694;10.006;2023-06-10T04:00:54;99608.44;;;16.33;63.63
66430;BME280;53242;51.694;10.006;2023-06-10T04:03:25;99600.22;;;16.35;63.89
66430;BME280;53242;51.694;10.006;2023-06-10T04:05:48;99607.38;;;16.22;63.95
66430;BME280;53242;51.694;10.006;2023-06-10T04:08:12;99604.03;;;16.51;63.62
66430;BME280;53242;51.694;10.006;2023-06-10T04:10:34;99603.13;;;16.45;63.36
66430;BME280;53242;51.694;10.006;2023-06-10T04:12:57;99603.94;;;16.57;63.00
66430;BME280;53242;51.694;10.006;2023-06-10T04:15:22;99598.16;;;16.49;63.26
66430;BME280;53242;51.694;10.006;2023-06-10T04:17:48;99600.91;;;16.42;63.73
66430;BME280;53242;51.694;10.006;2023-06-10T04:20:12;99600.00;;;16.60;63.23
66430;BME280;53242;51.694;10.006;2023-06-10T04:22:37;99594.66;;;16.60;63.18
66430;BME280;53242;51.694;10.006;2023-06-10T04:25:00;99592.22;;;16.58;63.37
66430;BME280;53242;51.694;10.006;2023-06-10T04:27:22;99598.94;;;16.49;63.85
66430;BME280;53242;51.694;10.006;2023-06-10T04:29:45;99599.75;;;16.26;64.55
66430;BME280;53242;51.694;10.006;2023-06-10T04:32:07;99600.69;;;16.43;63.92
66430;BME280;53242;51.694;10.006;2023-06-10T04:34:31;99609.38;;;16.39;64.31
66430;BME280;53242;51.694;10.006;2023-06-10T04:36:53;99609.50;;;16.44;64.24
66430;BME280;53242;51.694;10.006;2023-06-10T04:39:16;99608.75;;;16.25;65.00
66430;BME280;53242;51.694;10.006;2023-06-10T04:41:39;99610.16;;;16.39;64.60
66430;BME280;53242;51.694;10.006;2023-06-10T04:44:02;99608.44;;;16.57;63.94
66430;BME280;53242;51.694;10.006;2023-06-10T04:46:25;99609.28;;;16.69;63.83
66430;BME280;53242;51.694;10.006;2023-06-10T04:48:48;99600.56;;;17.09;62.52
66430;BME280;53242;51.694;10.006;2023-06-10T04:51:10;99614.69;;;17.63;60.96
66430;BME280;53242;51.694;10.006;2023-06-10T04:53:33;99596.94;;;17.97;59.78
66430;BME280;53242;51.694;10.006;2023-06-10T04:55:56;99608.19;;;17.87;59.84
66430;BME280;53242;51.694;10.006;2023-06-10T04:58:19;99609.75;;;18.29;58.82
66430;BME280;53242;51.694;10.006;2023-06-10T05:00:42;99613.44;;;18.62;57.78
66430;BME280;53242;51.694;10.006;2023-06-10T05:03:05;99616.38;;;18.44;58.38
66430;BME280;53242;51.694;10.006;2023-06-10T05:05:28;99618.22;;;18.77;57.77
66430;BME280;53242;51.694;10.006;2023-06-10T05:07:50;99608.22;;;19.06;57.14
66430;BME280;53242;51.694;10.006;2023-06-10T05:10:13;99616.59;;;18.93;57.40
66430;BME280;53242;51.694;10.006;2023-06-10T05:12:35;99617.03;;;18.68;58.23
66430;BME280;53242;51.694;10.006;2023-06-10T05:14:57;99621.94;;;18.93;58.03
66430;BME280;53242;51.694;10.006;2023-06-10T05:17:20;99618.72;;;18.74;57.96
66430;BME280;53242;51.694;10.006;2023-06-10T05:19:42;99622.66;;;18.88;57.58
66430;BME280;53242;51.694;10.006;2023-06-10T05:22:05;99621.53;;;19.46;56.27
66430;BME280;53242;51.694;10.006;2023-06-10T05:24:28;99619.59;;;18.97;57.71
66430;BME280;53242;51.694;10.006;2023-06-10T05:26:50;99626.81;;;19.41;56.46
66430;BME280;53242;51.694;10.006;2023-06-10T05:29:13;99637.56;;;19.01;57.67
66430;BME280;53242;51.694;10.006;2023-06-10T05:31:35;99633.13;;;18.90;58.56
66430;BME280;53242;51.694;10.006;2023-06-10T05:33:58;99641.16;;;18.90;58.24
66430;BME280;53242;51.694;10.006;2023-06-10T05:36:20;99641.22;;;19.57;56.74
66430;BME280;53242;51.694;10.006;2023-06-10T05:38:43;99638.78;;;19.33;57.22
66430;BME280;53242;51.694;10.006;2023-06-10T05:41:05;99639.34;;;19.57;56.69
66430;BME280;53242;51.694;10.006;2023-06-10T05:43:27;99630.94;;;19.26;56.96
66430;BME280;53242;51.694;10.006;2023-06-10T05:45:50;99631.25;;;18.90;58.40
66430;BME280;53242;51.694;10.006;2023-06-10T05:48:12;99627.97;;;19.94;55.91
66430;BME280;53242;51.694;10.006;2023-06-10T05:50:35;99627.16;;;19.94;55.84
66430;BME280;53242;51.694;10.006;2023-06-10T05:53:00;99627.38;;;19.65;56.15
66430;BME280;53242;51.694;10.006;2023-06-10T05:55:23;99630.91;;;19.93;55.72
66430;BME280;53242;51.694;10.006;2023-06-10T05:57:45;99637.03;;;20.20;54.92
66430;BME280;53242;51.694;10.006;2023-06-10T06:00:08;99639.88;;;19.81;55.58
66430;BME280;53242;51.694;10.006;2023-06-10T06:02:37;99632.03;;;19.52;57.09
66430;BME280;53242;51.694;10.006;2023-06-10T06:05:00;99634.72;;;19.75;56.16
66430;BME280;53242;51.694;10.006;2023-06-10T06:07:22;99632.19;;;19.41;57.15
66430;BME280;53242;51.694;10.006;2023-06-10T06:09:45;99639.28;;;19.30;57.15
66430;BME280;53242;51.694;10.006;2023-06-10T06:12:07;99634.13;;;19.23;58.24
66430;BME280;53242;51.694;10.006;2023-06-10T06:14:31;99637.72;;;19.34;57.62
66430;BME280;53242;51.694;10.006;2023-06-10T06:16:54;99635.59;;;19.14;58.62
66430;BME280;53242;51.694;10.006;2023-06-10T06:19:16;99634.00;;;19.35;58.48
66430;BME280;53242;51.694;10.006;2023-06-10T06:21:38;99633.47;;;19.60;57.83
66430;BME280;53242;51.694;10.006;2023-06-10T06:24:01;99633.50;;;19.82;57.48
66430;BME280;53242;51.694;10.006;2023-06-10T06:26:23;99639.56;;;19.78;57.29
66430;BME280;53242;51.694;10.006;2023-06-10T06:28:46;99638.25;;;19.80;57.09
66430;BME280;53242;51.694;10.006;2023-06-10T06:31:08;99635.25;;;19.77;57.33
66430;BME280;53242;51.694;10.006;2023-06-10T06:33:30;99635.41;;;20.19;56.73
66430;BME280;53242;51.694;10.006;2023-06-10T06:35:53;99632.59;;;20.31;56.52
66430;BME280;53242;51.694;10.006;2023-06-10T06:38:15;99627.66;;;19.91;58.06
66430;BME280;53242;51.694;10.006;2023-06-10T06:40:38;99622.72;;;20.37;56.83
66430;BME280;53242;51.694;10.006;2023-06-10T06:43:00;99630.34;;;20.56;56.21
66430;BME280;53242;51.694;10.006;2023-06-10T06:45:34;99633.34;;;20.64;56.09
66430;BME280;53242;51.694;10.006;2023-06-10T06:47:57;99634.06;;;20.49;57.03
66430;BME280;53242;51.694;10.006;2023-06-10T06:50:19;99638.69;;;20.97;55.62
66430;BME280;53242;51.694;10.006;2023-06-10T06:52:41;99643.16;;;20.81;55.42
66430;BME280;53242;51.694;10.006;2023-06-10T06:55:04;99633.75;;;20.78;55.69
66430;BME280;53242;51.694;10.006;2023-06-10T06:57:27;99640.84;;;20.57;56.52
66430;BME280;53242;51.694;10.006;2023-06-10T06:59:49;99634.38;;;20.58;57.00
66430;BME280;53242;51.694;10.006;2023-06-10T07:02:12;99639.28;;;21.04;55.59
66430;BME280;53242;51.694;10.006;2023-06-10T07:04:34;99640.75;;;20.79;56.24
66430;BME280;53242;51.694;10.006;2023-06-10T07:06:57;99644.50;;;20.83;56.01
66430;BME280;53242;51.694;10.006;2023-06-10T07:09:19;99640.22;;;20.82;55.97
66430;BME280;53242;51.694;10.006;2023-06-10T07:11:42;99640.31;;;20.98;55.58
66430;BME280;53242;51.694;10.006;2023-06-10T07:14:04;99650.97;;;20.88;55.88
66430;BME280;53242;51.694;10.006;2023-06-10T07:16:27;99646.53;;;21.03;55.64
66430;BME280;53242;51.694;10.006;2023-06-10T07:18:49;99647.00;;;20.95;56.23
66430;BME280;53242;51.694;10.006;2023-06-10T07:21:11;99651.56;;;20.95;56.19
66430;BME280;53242;51.694;10.006;2023-06-10T07:23:34;99637.94;;;21.07;56.12
66430;BME280;53242;51.694;10.006;2023-06-10T07:25:56;99651.97;;;21.19;56.16
66430;BME280;53242;51.694;10.006;2023-06-10T07:28:19;99648.88;;;21.53;55.42
66430;BME280;53242;51.694;10.006;2023-06-10T07:30:41;99650.56;;;21.64;55.42
66430;BME280;53242;51.694;10.006;2023-06-10T07:33:04;99660.28;;;21.76;55.61
66430;BME280;53242;51.694;10.006;2023-06-10T07:35:29;99654.63;;;21.77;56.36
66430;BME280;53242;51.694;10.006;2023-06-10T07:37:52;99654.44;;;21.36;56.63
66430;BME280;53242;51.694;10.006;2023-06-10T07:40:14;99656.22;;;21.68;56.00
66430;BME280;53242;51.694;10.006;2023-06-10T07:42:37;99662.38;;;21.63;56.21
66430;BME280;53242;51.694;10.006;2023-06-10T07:44:59;99661.13;;;22.17;55.01
66430;BME280;53242;51.694;10.006;2023-06-10T07:47:22;99658.69;;;21.90;55.34
66430;BME280;53242;51.694;10.006;2023-06-10T07:49:44;99651.63;;;21.68;55.04
66430;BME280;53242;51.694;10.006;2023-06-10T07:52:07;99658.13;;;21.83;54.70
66430;BME280;53242;51.694;10.006;2023-06-10T07:54:29;99658.69;;;21.90;54.36
66430;BME280;53242;51.694;10.006;2023-06-10T07:56:52;99650.38;;;22.07;54.00
66430;BME280;53242;51.694;10.006;2023-06-10T07:59:16;99654.66;;;21.98;54.65
66430;BME280;53242;51.694;10.006;2023-06-10T08:01:38;99653.66;;;22.66;53.50
66430;BME280;53242;51.694;10.006;2023-06-10T08:04:03;99654.16;;;22.73;53.51
66430;BME280;53242;51.694;10.006;2023-06-10T08:06:26;99653.94;;;22.39;54.74
66430;BME280;53242;51.694;10.006;2023-06-10T08:08:48;99653.66;;;22.61;54.18
66430;BME280;53242;51.694;10.006;2023-06-10T08:11:11;99653.66;;;22.66;53.53
66430;BME280;53242;51.694;10.006;2023-06-10T08:13:33;99651.22;;;22.70;53.20
66430;BME280;53242;51.694;10.006;2023-06-10T08:15:56;99644.44;;;23.03;52.82
66430;BME280;53242;51.694;10.006;2023-06-10T08:18:18;99652.25;;;22.99;52.59
66430;BME280;53242;51.694;10.006;2023-06-10T08:20:41;99663.00;;;23.15;52.11
66430;BME280;53242;51.694;10.006;2023-06-10T08:23:03;99655.16;;;23.13;53.14
66430;BME280;53242;51.694;10.006;2023-06-10T08:25:26;99657.31;;;23.06;52.82
66430;BME280;53242;51.694;10.006;2023-06-10T08:27:48;99649.81;;;22.98;52.43
66430;BME280;53242;51.694;10.006;2023-06-10T08:30:11;99654.63;;;23.11;52.21
66430;BME280;53242;51.694;10.006;2023-06-10T08:32:35;99653.06;;;22.85;52.51
66430;BME280;53242;51.694;10.006;2023-06-10T08:34:57;99657.31;;;23.17;51.81
66430;BME280;53242;51.694;10.006;2023-06-10T08:37:20;99663.72;;;23.36;52.62
66430;BME280;53242;51.694;10.006;2023-06-10T08:39:42;99661.09;;;23.81;51.64
66430;BME280;53242;51.694;10.006;2023-06-10T08:42:11;99662.28;;;23.59;51.69
66430;BME280;53242;51.694;10.006;2023-06-10T08:44:36;99654.16;;;23.64;51.43
66430;BME280;53242;51.694;10.006;2023-06-10T08:47:06;99656.25;;;23.78;51.24
66430;BME280;53242;51.694;10.006;2023-06-10T08:49:30;99653.44;;;24.04;50.77
66430;BME280;53242;51.694;10.006;2023-06-10T08:51:59;99649.00;;;23.73;52.20
66430;BME280;53242;51.694;10.006;2023-06-10T08:54:25;99646.66;;;23.56;52.24
66430;BME280;53242;51.694;10.006;2023-06-10T08:56:49;99650.53;;;23.90;52.10
66430;BME280;53242;51.694;10.006;2023-06-10T08:59:15;99651.69;;;23.73;52.65
66430;BME280;53242;51.694;10.006;2023-06-10T09:01:38;99649.19;;;23.92;52.63
66430;BME280;53242;51.694;10.006;2023-06-10T09:04:02;99649.16;;;23.97;52.28
66430;BME280;53242;51.694;10.006;2023-06-10T09:06:25;99645.75;;;23.81;52.21
66430;BME280;53242;51.694;10.006;2023-06-10T09:08:47;99645.41;;;23.88;51.81
66430;BME280;53242;51.694;10.006;2023-06-10T09:11:10;99648.13;;;23.88;52.14
66430;BME280;53242;51.694;10.006;2023-06-10T09:13:32;99644.19;;;24.15;51.80
66430;BME280;53242;51.694;10.006;2023-06-10T09:15:55;99637.13;;;24.54;51.29
66430;BME280;53242;51.694;10.006;2023-06-10T09:18:18;99642.03;;;24.46;51.84
66430;BME280;53242;51.694;10.006;2023-06-10T09:20:42;99637.06;;;24.64;51.24
66430;BME280;53242;51.694;10.006;2023-06-10T09:23:05;99640.78;;;24.68;51.48
66430;BME280;53242;51.694;10.006;2023-06-10T09:25:38;99631.91;;;24.92;50.52
66430;BME280;53242;51.694;10.006;2023-06-10T09:28:01;99638.09;;;24.68;51.18
66430;BME280;53242;51.694;10.006;2023-06-10T09:30:27;99635.91;;;24.70;50.67
66430;BME280;53242;51.694;10.006;2023-06-10T09:32:50;99630.88;;;24.88;50.62
66430;BME280;53242;51.694;10.006;2023-06-10T09:35:12;99636.66;;;24.76;51.23
66430;BME280;53242;51.694;10.006;2023-06-10T09:37:38;99630.59;;;24.89;52.58
66430;BME280;53242;51.694;10.006;2023-06-10T09:40:05;99624.06;;;24.66;51.13
66430;BME280;53242;51.694;10.006;2023-06-10T09:42:32;99629.31;;;25.06;50.87
66430;BME280;53242;51.694;10.006;2023-06-10T09:44:56;99619.25;;;25.11;50.00
66430;BME280;53242;51.694;10.006;2023-06-10T09:47:22;99628.63;;;25.19;49.87
66430;BME280;53242;51.694;10.006;2023-06-10T09:49:44;99630.34;;;25.34;50.57
66430;BME280;53242;51.694;10.006;2023-06-10T09:52:07;99630.91;;;25.36;50.76
66430;BME280;53242;51.694;10.006;2023-06-10T09:54:31;99626.09;;;25.52;50.08
66430;BME280;53242;51.694;10.006;2023-06-10T09:56:53;99616.34;;;25.51;50.52
66430;BME280;53242;51.694;10.006;2023-06-10T09:59:16;99627.72;;;25.72;50.41
66430;BME280;53242;51.694;10.006;2023-06-10T10:01:38;99621.19;;;25.54;50.14
66430;BME280;53242;51.694;10.006;2023-06-10T10:04:01;99620.59;;;25.57;50.40
66430;BME280;53242;51.694;10.006;2023-06-10T10:06:23;99620.25;;;25.83;49.61
66430;BME280;53242;51.694;10.006;2023-06-10T10:08:48;99614.06;;;25.97;50.05
66430;BME280;53242;51.694;10.006;2023-06-10T10:11:11;99611.91;;;25.60;50.03
66430;BME280;53242;51.694;10.006;2023-06-10T10:13:35;99616.28;;;25.75;49.78
66430;BME280;53242;51.694;10.006;2023-06-10T10:16:00;99615.47;;;25.94;49.15
66430;BME280;53242;51.694;10.006;2023-06-10T10:18:24;99607.56;;;25.98;49.32
66430;BME280;53242;51.694;10.006;2023-06-10T10:20:53;99613.38;;;25.91;49.31
66430;BME280;53242;51.694;10.006;2023-06-10T10:26:21;99615.91;;;26.01;49.34
66430;BME280;53242;51.694;10.006;2023-06-10T10:28:51;99608.97;;;25.76;50.26
66430;BME280;53242;51.694;10.006;2023-06-10T10:31:18;99615.41;;;26.18;49.11
66430;BME280;53242;51.694;10.006;2023-06-10T10:33:49;99609.88;;;26.56;49.03
66430;BME280;53242;51.694;10.006;2023-06-10T10:36:15;99614.47;;;26.42;49.38
66430;BME280;53242;51.694;10.006;2023-06-10T10:38:37;99607.72;;;26.25;49.12
66430;BME280;53242;51.694;10.006;2023-06-10T10:41:00;99610.16;;;26.74;49.31
66430;BME280;53242;51.694;10.006;2023-06-10T10:43:23;99599.19;;;27.07;48.11
66430;BME280;53242;51.694;10.006;2023-06-10T10:45:46;99603.38;;;26.71;48.56
66430;BME280;53242;51.694;10.006;2023-06-10T10:48:09;99603.81;;;26.92;48.37
66430;BME280;53242;51.694;10.006;2023-06-10T10:50:34;99599.19;;;26.93;48.01
66430;BME280;53242;51.694;10.006;2023-06-10T10:53:02;99604.31;;;26.81;47.14
66430;BME280;53242;51.694;10.006;2023-06-10T10:55:26;99609.94;;;26.84;48.01
66430;BME280;53242;51.694;10.006;2023-06-10T10:57:58;99596.31;;;26.89;47.25
66430;BME280;53242;51.694;10.006;2023-06-10T11:00:36;99607.19;;;26.70;47.28
66430;BME280;53242;51.694;10.006;2023-06-10T11:05:51;99595.75;;;27.43;46.64
66430;BME280;53242;51.694;10.006;2023-06-10T11:08:15;99591.78;;;27.13;46.94
66430;BME280;53242;51.694;10.006;2023-06-10T11:10:38;99595.16;;;27.32;46.59
66430;BME280;53242;51.694;10.006;2023-06-10T11:13:09;99591.75;;;27.40;47.26
66430;BME280;53242;51.694;10.006;2023-06-10T11:15:32;99589.88;;;26.99;47.25
66430;BME280;53242;51.694;10.006;2023-06-10T11:23:07;99581.22;;;27.39;46.29
66430;BME280;53242;51.694;10.006;2023-06-10T11:25:39;99581.28;;;27.34;45.86
66430;BME280;53242;51.694;10.006;2023-06-10T11:28:01;99581.59;;;27.32;46.37
66430;BME280;53242;51.694;10.006;2023-06-10T11:30:25;99577.31;;;27.17;46.50
66430;BME280;53242;51.694;10.006;2023-06-10T11:32:51;99580.66;;;27.37;46.04
66430;BME280;53242;51.694;10.006;2023-06-10T11:35:14;99569.66;;;27.70;45.79
66430;BME280;53242;51.694;10.006;2023-06-10T11:37:37;99579.53;;;27.66;45.37
66430;BME280;53242;51.694;10.006;2023-06-10T11:39:59;99570.78;;;27.69;45.65
66430;BME280;53242;51.694;10.006;2023-06-10T11:42:22;99579.06;;;27.50;46.13
66430;BME280;53242;51.694;10.006;2023-06-10T11:44:53;99574.66;;;27.54;45.41
66430;BME280;53242;51.694;10.006;2023-06-10T11:47:15;99566.22;;;27.78;45.53
66430;BME280;53242;51.694;10.006;2023-06-10T11:49:38;99562.41;;;28.02;45.59
66430;BME280;53242;51.694;10.006;2023-06-10T11:52:02;99565.63;;;28.04;45.53
66430;BME280;53242;51.694;10.006;2023-06-10T11:54:26;99571.81;;;27.82;44.87
66430;BME280;53242;51.694;10.006;2023-06-10T11:56:48;99565.38;;;27.92;44.22
66430;BME280;53242;51.694;10.006;2023-06-10T11:59:11;99571.28;;;28.16;44.94
66430;BME280;53242;51.694;10.006;2023-06-10T12:01:36;99564.69;;;28.09;43.77
66430;BME280;53242;51.694;10.006;2023-06-10T12:04:07;99569.34;;;28.08;44.49
66430;BME280;53242;51.694;10.006;2023-06-10T12:06:50;99569.00;;;28.41;43.60
66430;BME280;53242;51.694;10.006;2023-06-10T12:09:20;99561.69;;;28.50;43.73
66430;BME280;53242;51.694;10.006;2023-06-10T12:11:43;99563.25;;;28.34;43.57
66430;BME280;53242;51.694;10.006;2023-06-10T12:14:06;99552.06;;;28.67;42.85
66430;BME280;53242;51.694;10.006;2023-06-10T12:16:29;99548.44;;;28.80;42.87
66430;BME280;53242;51.694;10.006;2023-06-10T12:19:01;99541.25;;;28.84;42.44
66430;BME280;53242;51.694;10.006;2023-06-10T12:21:24;99545.41;;;28.82;42.42
66430;BME280;53242;51.694;10.006;2023-06-10T12:26:41;99557.69;;;28.48;42.33
66430;BME280;53242;51.694;10.006;2023-06-10T12:29:16;99563.22;;;28.65;42.86
66430;BME280;53242;51.694;10.006;2023-06-10T12:32:02;99558.16;;;28.73;42.84
66430;BME280;53242;51.694;10.006;2023-06-10T12:34:39;99551.16;;;28.80;42.41
66430;BME280;53242;51.694;10.006;2023-06-10T12:37:03;99555.22;;;29.09;41.21
66430;BME280;53242;51.694;10.006;2023-06-10T12:39:26;99552.03;;;29.07;41.84
66430;BME280;53242;51.694;10.006;2023-06-10T12:41:49;99551.59;;;29.31;41.43
66430;BME280;53242;51.694;10.006;2023-06-10T12:44:13;99541.03;;;29.39;40.99
66430;BME280;53242;51.694;10.006;2023-06-10T12:46:37;99541.50;;;29.84;42.04
66430;BME280;53242;51.694;10.006;2023-06-10T12:48:59;99539.81;;;28.87;41.18
66430;BME280;53242;51.694;10.006;2023-06-10T12:51:21;99539.00;;;28.86;42.22
66430;BME280;53242;51.694;10.006;2023-06-10T12:53:44;99552.53;;;28.29;43.36